sensor_id;sensor_type;location;lat;lon;timestamp;pressure;altitude;pressure_sealevel;temperature;humidity
70521;BME280;58442;52.716;23.560;2023-05-22T00:01:50;101939.23;;;11.53;62.08
70521;BME280;58442;52.716;23.560;2023-05-22T00:03:52;101934.59;;;11.54;62.20
70521;BME280;58442;52.716;23.560;2023-05-22T00:05:54;101935.21;;;11.50;62.29
70521;BME280;58442;52.716;23.560;2023-05-22T00:08:00;101935.55;;;11.49;62.35
70521;BME280;58442;52.716;23.560;2023-05-22T00:10:05;101934.28;;;11.46;62.44
70521;BME280;58442;52.716;23.560;2023-05-22T00:12:07;101928.34;;;11.44;62.61
70521;BME280;58442;52.716;23.560;2023-05-22T00:14:09;101935.70;;;11.44;62.67
70521;BME280;58442;52.716;23.560;2023-05-22T00:16:13;101936.04;;;11.42;62.61
70521;BME280;58442;52.716;23.560;2023-05-22T00:18:20;101933.31;;;11.42;62.56
70521;BME280;58442;52.716;23.560;2023-05-22T00:20:21;101940.70;;;11.42;62.62
70521;BME280;58442;52.716;23.560;2023-05-22T00:22:23;101938.30;;;11.40;62.62
70521;BME280;58442;52.716;23.560;2023-05-22T00:24:28;101932.35;;;11.38;62.66
70521;BME280;58442;52.716;23.560;2023-05-22T00:26:35;101933.01;;;11.35;62.77
70521;BME280;58442;52.716;23.560;2023-05-22T00:28:36;101933.64;;;11.32;62.98
70521;BME280;58442;52.716;23.560;2023-05-22T00:30:38;101925.48;;;11.32;63.10
70521;BME280;58442;52.716;23.560;2023-05-22T00:32:40;101919.23;;;11.32;63.15
70521;BME280;58442;52.716;23.560;2023-05-22T00:34:49;101924.68;;;11.32;63.23
70521;BME280;58442;52.716;23.560;2023-05-22T00:36:51;101928.20;;;11.32;63.31
70521;BME280;58442;52.716;23.560;2023-05-22T00:38:52;101942.93;;;11.31;63.24
70521;BME280;58442;52.716;23.560;2023-05-22T00:40:54;101937.02;;;11.29;63.35
70521;BME280;58442;52.716;23.560;2023-05-22T00:43:04;101926.13;;;11.29;63.40
70521;BME280;58442;52.716;23.560;2023-05-22T00:45:10;101926.92;;;11.30;63.55
70521;BME280;58442;52.716;23.560;2023-05-22T00:47:11;101929.98;;;11.28;63.67
70521;BME280;58442;52.716;23.560;2023-05-22T00:49:13;101923.74;;;11.28;63.72
70521;BME280;58442;52.716;23.560;2023-05-22T00:51:20;101931.91;;;11.28;63.78
70521;BME280;58442;52.716;23.560;2023-05-22T00:53:23;101927.26;;;11.28;63.90
70521;BME280;58442;52.716;23.560;2023-05-22T00:55:25;101933.83;;;11.27;64.04
70521;BME280;58442;52.716;23.560;2023-05-22T00:57:26;101933.83;;;11.27;64.16
70521;BME280;58442;52.716;23.560;2023-05-22T00:59:34;101931.43;;;11.26;64.34
70521;BME280;58442;52.716;23.560;2023-05-22T01:01:37;101937.34;;;11.28;64.48
70521;BME280;58442;52.716;23.560;2023-05-22T01:03:43;101927.73;;;11.30;64.46
70521;BME280;58442;52.716;23.560;2023-05-22T01:05:46;101928.20;;;11.32;64.44
70521;BME280;58442;52.716;23.560;2023-05-22T01:07:49;101932.21;;;11.35;64.44
70521;BME280;58442;52.716;23.560;2023-05-22T01:09:51;101922.45;;;11.34;64.62
70521;BME280;58442;52.716;23.560;2023-05-22T01:14:14;101924.05;;;11.35;64.89
70521;BME280;58442;52.716;23.560;2023-05-22T01:16:25;101922.13;;;11.35;64.93
70521;BME280;58442;52.716;23.560;2023-05-22T01:18:41;101926.45;;;11.36;64.89
70521;BME280;58442;52.716;23.560;2023-05-22T01:20:53;101925.81;;;11.39;64.88
70521;BME280;58442;52.716;23.560;2023-05-22T01:23:19;101924.69;;;11.40;64.91
70521;BME280;58442;52.716;23.560;2023-05-22T01:25:39;101928.20;;;11.41;64.89
70521;BME280;58442;52.716;23.560;2023-05-22T01:32:35;101920.18;;;11.44;64.82
70521;BME280;58442;52.716;23.560;2023-05-22T01:34:38;101922.56;;;11.46;64.83
70521;BME280;58442;52.716;23.560;2023-05-22T01:36:45;101924.20;;;11.47;64.74
70521;BME280;58442;52.716;23.560;2023-05-22T01:38:49;101924.20;;;11.47;64.68
70521;BME280;58442;52.716;23.560;2023-05-22T01:40:53;101916.83;;;11.47;64.61
70521;BME280;58442;52.716;23.560;2023-05-22T01:42:55;101918.75;;;11.47;64.67
70521;BME280;58442;52.716;23.560;2023-05-22T01:44:56;101915.52;;;11.45;64.72
70521;BME280;58442;52.716;23.560;2023-05-22T01:46:58;101928.02;;;11.46;64.69
70521;BME280;58442;52.716;23.560;2023-05-22T01:49:05;101919.55;;;11.47;64.65
70521;BME280;58442;52.716;23.560;2023-05-22T01:51:58;101920.66;;;11.46;64.70
70521;BME280;58442;52.716;23.560;2023-05-22T01:53:32;101917.95;;;11.46;64.73
70521;BME280;58442;52.716;23.560;2023-05-22T01:55:49;101920.66;;;11.46;64.75
70521;BME280;58442;52.716;23.560;2023-05-22T01:58:07;101923.40;;;11.46;64.77
70521;BME280;58442;52.716;23.560;2023-05-22T02:00:08;101917.95;;;11.46;64.79
70521;BME280;58442;52.716;23.560;2023-05-22T02:02:18;101920.66;;;11.46;64.88
70521;BME280;58442;52.716;23.560;2023-05-22T02:04:22;101915.22;;;11.46;65.00
70521;BME280;58442;52.716;23.560;2023-05-22T02:06:28;101914.90;;;11.48;65.01
70521;BME280;58442;52.716;23.560;2023-05-22T02:08:34;101914.57;;;11.49;65.04
70521;BME280;58442;52.716;23.560;2023-05-22T02:10:36;101915.36;;;11.50;65.02
70521;BME280;58442;52.716;23.560;2023-05-22T02:12:49;101912.31;;;11.51;65.09
70521;BME280;58442;52.716;23.560;2023-05-22T02:14:51;101912.31;;;11.51;65.27
70521;BME280;58442;52.716;23.560;2023-05-22T02:16:53;101919.35;;;11.53;65.38
70521;BME280;58442;52.716;23.560;2023-05-22T02:19:00;101916.31;;;11.54;65.41
70521;BME280;58442;52.716;23.560;2023-05-22T02:21:07;101909.41;;;11.57;65.43
70521;BME280;58442;52.716;23.560;2023-05-22T02:23:09;101915.33;;;11.59;65.59
70521;BME280;58442;52.716;23.560;2023-05-22T02:25:11;101916.62;;;11.61;65.68
70521;BME280;58442;52.716;23.560;2023-05-22T02:27:14;101909.71;;;11.64;65.71
70521;BME280;58442;52.716;23.560;2023-05-22T02:29:19;101910.18;;;11.66;65.71
70521;BME280;58442;52.716;23.560;2023-05-22T02:31:20;101904.90;;;11.69;65.81
70521;BME280;58442;52.716;23.560;2023-05-22T02:33:22;101915.13;;;11.72;65.84
70521;BME280;58442;52.716;23.560;2023-05-22T02:35:23;101906.66;;;11.74;65.84
70521;BME280;58442;52.716;23.560;2023-05-22T02:37:34;101905.19;;;11.76;65.92
70521;BME280;58442;52.716;23.560;2023-05-22T02:39:36;101904.06;;;11.77;66.10
70521;BME280;58442;52.716;23.560;2023-05-22T02:41:37;101904.52;;;11.79;66.16
70521;BME280;58442;52.716;23.560;2023-05-22T02:43:39;101913.49;;;11.80;66.23
70521;BME280;58442;52.716;23.560;2023-05-22T02:45:48;101906.18;;;11.81;66.33
70521;BME280;58442;52.716;23.560;2023-05-22T02:47:50;101910.95;;;11.84;66.43
70521;BME280;58442;52.716;23.560;2023-05-22T02:49:52;101905.67;;;11.87;66.44
70521;BME280;58442;52.716;23.560;2023-05-22T02:51:54;101910.13;;;11.92;66.43
70521;BME280;58442;52.716;23.560;2023-05-22T02:54:04;101901.31;;;11.95;66.42
70521;BME280;58442;52.716;23.560;2023-05-22T02:56:08;101909.61;;;11.98;66.52
70521;BME280;58442;52.716;23.560;2023-05-22T02:58:14;101908.97;;;12.01;66.52
70521;BME280;58442;52.716;23.560;2023-05-22T03:00:19;101898.53;;;12.03;66.51
70521;BME280;58442;52.716;23.560;2023-05-22T03:02:24;101892.41;;;12.07;66.48
70521;BME280;58442;52.716;23.560;2023-05-22T03:04:29;101902.19;;;12.08;66.63
70521;BME280;58442;52.716;23.560;2023-05-22T03:06:30;101895.63;;;12.09;66.71
70521;BME280;58442;52.716;23.560;2023-05-22T03:08:32;101904.27;;;12.11;66.74
70521;BME280;58442;52.716;23.560;2023-05-22T03:10:38;101904.39;;;12.14;66.77
70521;BME280;58442;52.716;23.560;2023-05-22T03:12:39;101898.30;;;12.17;66.84
70521;BME280;58442;52.716;23.560;2023-05-22T03:14:41;101892.98;;;12.21;66.85
70521;BME280;58442;52.716;23.560;2023-05-22T03:16:42;101894.60;;;12.22;66.84
70521;BME280;58442;52.716;23.560;2023-05-22T03:18:49;101899.70;;;12.23;66.91
70521;BME280;58442;52.716;23.560;2023-05-22T03:20:53;101890.73;;;12.23;67.12
70521;BME280;58442;52.716;23.560;2023-05-22T03:22:54;101891.20;;;12.25;67.15
70521;BME280;58442;52.716;23.560;2023-05-22T03:24:56;101888.30;;;12.30;67.12
70521;BME280;58442;52.716;23.560;2023-05-22T03:27:05;101897.38;;;12.34;67.12
70521;BME280;58442;52.716;23.560;2023-05-22T03:29:07;101902.98;;;12.38;67.18
70521;BME280;58442;52.716;23.560;2023-05-22T03:31:09;101897.20;;;12.39;67.18
70521;BME280;58442;52.716;23.560;2023-05-22T03:33:10;101892.88;;;12.38;67.26
70521;BME280;58442;52.716;23.560;2023-05-22T03:35:19;101893.52;;;12.35;67.41
70521;BME280;58442;52.716;23.560;2023-05-22T03:37:21;101890.00;;;12.35;67.55
70521;BME280;58442;52.716;23.560;2023-05-22T03:39:23;101891.28;;;12.37;67.64
70521;BME280;58442;52.716;23.560;2023-05-22T03:41:24;101888.69;;;12.41;67.56
70521;BME280;58442;52.716;23.560;2023-05-22T03:43:34;101888.38;;;12.42;67.65
70521;BME280;58442;52.716;23.560;2023-05-22T03:45:36;101897.93;;;12.48;67.56
70521;BME280;58442;52.716;23.560;2023-05-22T03:47:37;101889.90;;;12.52;67.48
70521;BME280;58442;52.716;23.560;2023-05-22T03:49:39;101893.88;;;12.54;67.47
70521;BME280;58442;52.716;23.560;2023-05-22T03:51:49;101895.16;;;12.57;67.47
70521;BME280;58442;52.716;23.560;2023-05-22T03:53:51;101898.68;;;12.57;67.58
70521;BME280;58442;52.716;23.560;2023-05-22T03:55:52;101890.50;;;12.57;67.61
70521;BME280;58442;52.716;23.560;2023-05-22T03:57:54;101896.41;;;12.59;67.66
70521;BME280;58442;52.716;23.560;2023-05-22T04:00:05;101893.16;;;12.66;67.59
70521;BME280;58442;52.716;23.560;2023-05-22T04:02:09;101884.78;;;12.71;67.58
70521;BME280;58442;52.716;23.560;2023-05-22T04:04:16;101885.58;;;12.72;67.60
70521;BME280;58442;52.716;23.560;2023-05-22T04:06:18;101891.95;;;12.76;67.56
70521;BME280;58442;52.716;23.560;2023-05-22T04:08:23;101885.03;;;12.78;67.47
70521;BME280;58442;52.716;23.560;2023-05-22T04:10:25;101890.61;;;12.82;67.53
70521;BME280;58442;52.716;23.560;2023-05-22T04:12:26;101877.77;;;12.82;67.59
70521;BME280;58442;52.716;23.560;2023-05-22T04:14:28;101882.23;;;12.87;67.57
70521;BME280;58442;52.716;23.560;2023-05-22T04:16:35;101878.03;;;12.90;67.57
70521;BME280;58442;52.716;23.560;2023-05-22T04:18:37;101886.47;;;12.97;67.55
70521;BME280;58442;52.716;23.560;2023-05-22T04:20:39;101885.13;;;13.03;67.43
70521;BME280;58442;52.716;23.560;2023-05-22T04:22:40;101886.07;;;13.07;67.33
70521;BME280;58442;52.716;23.560;2023-05-22T04:24:50;101884.28;;;13.11;67.32
70521;BME280;58442;52.716;23.560;2023-05-22T04:26:52;101886.32;;;13.14;67.39
70521;BME280;58442;52.716;23.560;2023-05-22T04:28:54;101886.77;;;13.16;67.40
70521;BME280;58442;52.716;23.560;2023-05-22T04:30:56;101889.98;;;13.18;67.44
70521;BME280;58442;52.716;23.560;2023-05-22T04:33:05;101886.91;;;13.20;67.49
70521;BME280;58442;52.716;23.560;2023-05-22T04:35:07;101888.98;;;13.23;67.57
70521;BME280;58442;52.716;23.560;2023-05-22T04:37:11;101889.91;;;13.27;67.58
70521;BME280;58442;52.716;23.560;2023-05-22T04:39:15;101888.92;;;13.31;67.55
70521;BME280;58442;52.716;23.560;2023-05-22T04:41:20;101883.22;;;13.36;67.56
70521;BME280;58442;52.716;23.560;2023-05-22T04:43:28;101887.33;;;13.43;67.59
70521;BME280;58442;52.716;23.560;2023-05-22T04:45:32;101881.31;;;13.49;67.52
70521;BME280;58442;52.716;23.560;2023-05-22T04:47:33;101878.83;;;13.56;67.45
70521;BME280;58442;52.716;23.560;2023-05-22T04:49:38;101877.91;;;13.64;67.33
70521;BME280;58442;52.716;23.560;2023-05-22T04:51:39;101874.30;;;13.73;67.33
70521;BME280;58442;52.716;23.560;2023-05-22T04:53:40;101878.73;;;13.77;67.36
70521;BME280;58442;52.716;23.560;2023-05-22T04:55:43;101876.13;;;13.81;67.29
70521;BME280;58442;52.716;23.560;2023-05-22T04:57:51;101877.37;;;13.83;67.31
70521;BME280;58442;52.716;23.560;2023-05-22T04:59:53;101873.27;;;13.89;67.32
70521;BME280;58442;52.716;23.560;2023-05-22T05:01:57;101875.79;;;13.94;67.25
70521;BME280;58442;52.716;23.560;2023-05-22T05:03:59;101873.62;;;14.00;67.12
70521;BME280;58442;52.716;23.560;2023-05-22T05:06:06;101870.63;;;14.05;67.04
70521;BME280;58442;52.716;23.560;2023-05-22T05:08:08;101877.47;;;14.11;67.01
70521;BME280;58442;52.716;23.560;2023-05-22T05:10:10;101869.14;;;14.20;66.86
70521;BME280;58442;52.716;23.560;2023-05-22T05:12:11;101872.20;;;14.31;66.67
70521;BME280;58442;52.716;23.560;2023-05-22T05:14:20;101877.89;;;14.38;66.54
70521;BME280;58442;52.716;23.560;2023-05-22T05:16:22;101878.46;;;14.43;66.47
70521;BME280;58442;52.716;23.560;2023-05-22T05:18:26;101872.78;;;14.48;66.39
70521;BME280;58442;52.716;23.560;2023-05-22T05:20:28;101877.20;;;14.53;66.24
70521;BME280;58442;52.716;23.560;2023-05-22T05:22:35;101870.00;;;14.61;66.10
70521;BME280;58442;52.716;23.560;2023-05-22T05:24:37;101879.20;;;14.68;66.08
70521;BME280;58442;52.716;23.560;2023-05-22T05:26:39;101876.34;;;14.77;65.93
70521;BME280;58442;52.716;23.560;2023-05-22T05:28:41;101883.25;;;14.87;65.73
70521;BME280;58442;52.716;23.560;2023-05-22T05:30:50;101876.50;;;14.96;65.52
70521;BME280;58442;52.716;23.560;2023-05-22T05:32:52;101867.41;;;15.08;65.37
70521;BME280;58442;52.716;23.560;2023-05-22T05:34:53;101873.62;;;15.21;65.12
70521;BME280;58442;52.716;23.560;2023-05-22T05:36:54;101866.86;;;15.30;64.93
70521;BME280;58442;52.716;23.560;2023-05-22T05:39:05;101863.94;;;15.39;64.82
70521;BME280;58442;52.716;23.560;2023-05-22T05:41:07;101863.32;;;15.46;64.83
70521;BME280;58442;52.716;23.560;2023-05-22T05:43:08;101867.84;;;15.54;64.81
70521;BME280;58442;52.716;23.560;2023-05-22T05:45:12;101869.63;;;15.62;64.71
70521;BME280;58442;52.716;23.560;2023-05-22T05:47:20;101869.01;;;15.69;64.63
70521;BME280;58442;52.716;23.560;2023-05-22T05:49:23;101867.70;;;15.78;64.51
70521;BME280;58442;52.716;23.560;2023-05-22T05:51:26;101866.34;;;15.88;64.30
70521;BME280;58442;52.716;23.560;2023-05-22T05:53:27;101867.04;;;16.01;64.06
70521;BME280;58442;52.716;23.560;2023-05-22T05:55:34;101868.85;;;16.12;63.84
70521;BME280;58442;52.716;23.560;2023-05-22T05:57:36;101870.27;;;16.22;63.65
70521;BME280;58442;52.716;23.560;2023-05-22T05:59:38;101870.48;;;16.33;63.40
70521;BME280;58442;52.716;23.560;2023-05-22T06:01:43;101867.19;;;16.43;63.18
70521;BME280;58442;52.716;23.560;2023-05-22T06:03:50;101868.56;;;16.53;63.00
70521;BME280;58442;52.716;23.560;2023-05-22T06:05:52;101875.08;;;16.64;62.94
70521;BME280;58442;52.716;23.560;2023-05-22T06:07:53;101870.98;;;16.74;62.77
70521;BME280;58442;52.716;23.560;2023-05-22T06:09:58;101870.05;;;16.85;62.64
70521;BME280;58442;52.716;23.560;2023-05-22T06:12:04;101858.91;;;16.98;62.53
70521;BME280;58442;52.716;23.560;2023-05-22T06:14:06;101863.09;;;17.11;62.43
70521;BME280;58442;52.716;23.560;2023-05-22T06:16:09;101862.14;;;17.22;62.26
70521;BME280;58442;52.716;23.560;2023-05-22T06:18:12;101865.92;;;17.37;61.67
70521;BME280;58442;52.716;23.560;2023-05-22T06:20:19;101856.34;;;17.50;61.10
70521;BME280;58442;52.716;23.560;2023-05-22T06:22:23;101851.42;;;17.63;60.73
70521;BME280;58442;52.716;23.560;2023-05-22T06:24:29;101852.84;;;17.76;60.28
70521;BME280;58442;52.716;23.560;2023-05-22T06:26:36;101858.55;;;17.91;60.04
70521;BME280;58442;52.716;23.560;2023-05-22T06:28:38;101861.17;;;18.07;59.84
70521;BME280;58442;52.716;23.560;2023-05-22T06:30:39;101863.71;;;18.19;59.30
70521;BME280;58442;52.716;23.560;2023-05-22T06:32:41;101855.96;;;18.28;58.74
70521;BME280;58442;52.716;23.560;2023-05-22T06:34:47;101863.94;;;18.37;58.29
70521;BME280;58442;52.716;23.560;2023-05-22T06:36:49;101857.74;;;18.43;57.88
70521;BME280;58442;52.716;23.560;2023-05-22T06:38:52;101862.13;;;18.48;57.48
70521;BME280;58442;52.716;23.560;2023-05-22T06:40:54;101854.28;;;18.50;57.31
70521;BME280;58442;52.716;23.560;2023-05-22T06:42:56;101856.30;;;18.53;57.03
70521;BME280;58442;52.716;23.560;2023-05-22T06:45:04;101857.13;;;18.57;56.83
70521;BME280;58442;52.716;23.560;2023-05-22T06:47:06;101846.27;;;18.68;56.37
70521;BME280;58442;52.716;23.560;2023-05-22T06:49:07;101846.36;;;18.75;56.11
70521;BME280;58442;52.716;23.560;2023-05-22T06:51:10;101844.42;;;18.79;56.07
70521;BME280;58442;52.716;23.560;2023-05-22T06:53:18;101845.30;;;18.86;55.89
70521;BME280;58442;52.716;23.560;2023-05-22T06:55:19;101838.72;;;18.95;55.45
70521;BME280;58442;52.716;23.560;2023-05-22T06:57:21;101839.60;;;19.06;54.94
70521;BME280;58442;52.716;23.560;2023-05-22T06:59:24;101846.04;;;19.21;54.63
70521;BME280;58442;52.716;23.560;2023-05-22T07:01:32;101850.81;;;19.24;54.50
70521;BME280;58442;52.716;23.560;2023-05-22T07:03:34;101843.35;;;19.28;54.37
70521;BME280;58442;52.716;23.560;2023-05-22T07:05:36;101843.05;;;19.36;54.08
70521;BME280;58442;52.716;23.560;2023-05-22T07:07:38;101846.27;;;19.46;53.83
70521;BME280;58442;52.716;23.560;2023-05-22T07:09:47;101843.58;;;19.53;53.70
70521;BME280;58442;52.716;23.560;2023-05-22T07:11:49;101845.63;;;19.59;53.62
70521;BME280;58442;52.716;23.560;2023-05-22T07:13:50;101843.72;;;19.67;53.44
70521;BME280;58442;52.716;23.560;2023-05-22T07:15:52;101847.33;;;19.75;53.27
70521;BME280;58442;52.716;23.560;2023-05-22T07:18:02;101841.10;;;19.85;53.10
70521;BME280;58442;52.716;23.560;2023-05-22T07:20:04;101842.34;;;19.94;52.74
70521;BME280;58442;52.716;23.560;2023-05-22T07:22:07;101843.98;;;20.06;52.52
70521;BME280;58442;52.716;23.560;2023-05-22T07:24:08;101836.15;;;20.12;52.37
70521;BME280;58442;52.716;23.560;2023-05-22T07:26:17;101836.54;;;20.14;52.39
70521;BME280;58442;52.716;23.560;2023-05-22T07:28:19;101841.31;;;20.20;52.37
70521;BME280;58442;52.716;23.560;2023-05-22T07:30:21;101843.32;;;20.27;52.29
70521;BME280;58442;52.716;23.560;2023-05-22T07:32:22;101840.96;;;20.29;52.31
70521;BME280;58442;52.716;23.560;2023-05-22T07:34:31;101836.66;;;20.35;52.26
70521;BME280;58442;52.716;23.560;2023-05-22T07:36:34;101843.79;;;20.40;52.07
70521;BME280;58442;52.716;23.560;2023-05-22T07:38:37;101841.81;;;20.44;52.04
70521;BME280;58442;52.716;23.560;2023-05-22T07:40:38;101842.66;;;20.52;52.01
70521;BME280;58442;52.716;23.560;2023-05-22T07:42:46;101841.53;;;20.60;51.86
70521;BME280;58442;52.716;23.560;2023-05-22T07:44:48;101838.39;;;20.68;51.78
70521;BME280;58442;52.716;23.560;2023-05-22T07:46:49;101838.02;;;20.73;51.75
70521;BME280;58442;52.716;23.560;2023-05-22T07:48:53;101835.28;;;20.81;51.62
70521;BME280;58442;52.716;23.560;2023-05-22T07:51:01;101838.83;;;20.85;51.59
70521;BME280;58442;52.716;23.560;2023-05-22T07:53:04;101828.98;;;20.87;51.43
70521;BME280;58442;52.716;23.560;2023-05-22T07:55:07;101831.34;;;20.92;51.26
70521;BME280;58442;52.716;23.560;2023-05-22T07:57:08;101830.96;;;20.97;51.10
70521;BME280;58442;52.716;23.560;2023-05-22T07:59:15;101840.45;;;21.03;51.10
70521;BME280;58442;52.716;23.560;2023-05-22T08:01:21;101837.30;;;21.12;50.89
70521;BME280;58442;52.716;23.560;2023-05-22T08:03:23;101842.87;;;21.23;50.57
70521;BME280;58442;52.716;23.560;2023-05-22T08:05:25;101839.34;;;21.29;50.45
70521;BME280;58442;52.716;23.560;2023-05-22T08:07:30;101840.54;;;21.36;50.36
70521;BME280;58442;52.716;23.560;2023-05-22T08:09:35;101835.41;;;21.41;50.10
70521;BME280;58442;52.716;23.560;2023-05-22T08:11:37;101837.35;;;21.48;49.91
70521;BME280;58442;52.716;23.560;2023-05-22T08:13:42;101842.52;;;21.56;49.71
70521;BME280;58442;52.716;23.560;2023-05-22T08:15:45;101830.25;;;21.65;49.53
70521;BME280;58442;52.716;23.560;2023-05-22T08:17:47;101830.65;;;21.70;49.24
70521;BME280;58442;52.716;23.560;2023-05-22T08:19:48;101836.55;;;21.79;49.04
70521;BME280;58442;52.716;23.560;2023-05-22T08:21:50;101836.93;;;21.89;48.91
70521;BME280;58442;52.716;23.560;2023-05-22T08:24:00;101836.91;;;21.96;48.88
70521;BME280;58442;52.716;23.560;2023-05-22T08:26:02;101831.77;;;22.05;48.99
70521;BME280;58442;52.716;23.560;2023-05-22T08:28:04;101836.12;;;22.13;49.08
70521;BME280;58442;52.716;23.560;2023-05-22T08:30:07;101836.10;;;22.24;49.03
70521;BME280;58442;52.716;23.560;2023-05-22T08:32:14;101826.54;;;22.39;48.83
70521;BME280;58442;52.716;23.560;2023-05-22T08:34:16;101826.86;;;22.55;48.71
70521;BME280;58442;52.716;23.560;2023-05-22T08:36:17;101828.39;;;22.67;48.43
70521;BME280;58442;52.716;23.560;2023-05-22T08:38:18;101827.14;;;22.79;48.27
70521;BME280;58442;52.716;23.560;2023-05-22T08:40:35;101820.72;;;22.96;48.03
70521;BME280;58442;52.716;23.560;2023-05-22T08:42:37;101822.98;;;23.12;47.74
70521;BME280;58442;52.716;23.560;2023-05-22T08:44:39;101817.73;;;23.28;47.40
70521;BME280;58442;52.716;23.560;2023-05-22T08:46:40;101819.95;;;23.47;47.23
70521;BME280;58442;52.716;23.560;2023-05-22T08:48:45;101820.14;;;23.71;46.94
70521;BME280;58442;52.716;23.560;2023-05-22T08:50:52;101816.00;;;23.90;46.56
70521;BME280;58442;52.716;23.560;2023-05-22T08:53:00;101814.22;;;24.07;46.17
70521;BME280;58442;52.716;23.560;2023-05-22T08:55:03;101824.37;;;24.20;45.98
70521;BME280;58442;52.716;23.560;2023-05-22T08:57:05;101815.16;;;24.27;46.04
70521;BME280;58442;52.716;23.560;2023-05-22T08:59:07;101813.10;;;24.35;45.38
70521;BME280;58442;52.716;23.560;2023-05-22T09:01:12;101799.88;;;24.46;44.80
70521;BME280;58442;52.716;23.560;2023-05-22T09:03:14;101804.91;;;24.54;44.58
70521;BME280;58442;52.716;23.560;2023-05-22T09:05:18;101800.05;;;24.62;44.45
70521;BME280;58442;52.716;23.560;2023-05-22T09:07:26;101804.36;;;24.67;44.05
70521;BME280;58442;52.716;23.560;2023-05-22T09:09:31;101799.91;;;24.73;43.51
70521;BME280;58442;52.716;23.560;2023-05-22T09:11:36;101793.38;;;24.83;43.04
70521;BME280;58442;52.716;23.560;2023-05-22T09:13:38;101799.63;;;24.91;42.84
70521;BME280;58442;52.716;23.560;2023-05-22T09:15:41;101791.60;;;24.96;42.63
70521;BME280;58442;52.716;23.560;2023-05-22T09:17:44;101786.70;;;25.07;42.27
70521;BME280;58442;52.716;23.560;2023-05-22T09:19:46;101779.80;;;25.16;41.79
70521;BME280;58442;52.716;23.560;2023-05-22T09:21:48;101776.55;;;25.21;41.71
70521;BME280;58442;52.716;23.560;2023-05-22T09:23:51;101776.86;;;25.26;41.49
70521;BME280;58442;52.716;23.560;2023-05-22T09:25:57;101767.22;;;25.31;41.64
70521;BME280;58442;52.716;23.560;2023-05-22T09:27:59;101763.66;;;25.07;42.05
70521;BME280;58442;52.716;23.560;2023-05-22T09:30:03;101764.19;;;24.71;42.56
70521;BME280;58442;52.716;23.560;2023-05-22T09:32:12;101769.66;;;24.48;42.90
70521;BME280;58442;52.716;23.560;2023-05-22T09:34:14;101761.91;;;24.32;42.87
70521;BME280;58442;52.716;23.560;2023-05-22T09:36:17;101773.95;;;24.22;42.93
70521;BME280;58442;52.716;23.560;2023-05-22T09:38:21;101772.09;;;24.12;42.96
70521;BME280;58442;52.716;23.560;2023-05-22T09:40:26;101773.48;;;23.96;42.82
70521;BME280;58442;52.716;23.560;2023-05-22T09:42:29;101765.70;;;23.81;42.64
70521;BME280;58442;52.716;23.560;2023-05-22T09:44:31;101768.27;;;23.64;42.63
70521;BME280;58442;52.716;23.560;2023-05-22T09:46:38;101765.19;;;23.52;42.67
70521;BME280;58442;52.716;23.560;2023-05-22T09:48:42;101762.59;;;23.34;42.69
70521;BME280;58442;52.716;23.560;2023-05-22T09:50:47;101760.73;;;23.20;42.75
70521;BME280;58442;52.716;23.560;2023-05-22T09:52:50;101761.96;;;23.12;42.80
70521;BME280;58442;52.716;23.560;2023-05-22T09:54:55;101762.02;;;23.05;42.83
70521;BME280;58442;52.716;23.560;2023-05-22T09:56:57;101762.07;;;22.98;42.72
70521;BME280;58442;52.716;23.560;2023-05-22T09:58:59;101758.95;;;22.92;42.60
70521;BME280;58442;52.716;23.560;2023-05-22T10:01:02;101761.39;;;22.86;42.34
70521;BME280;58442;52.716;23.560;2023-05-22T10:03:08;101755.45;;;22.81;42.31
70521;BME280;58442;52.716;23.560;2023-05-22T10:05:29;101763.39;;;22.79;42.14
70521;BME280;58442;52.716;23.560;2023-05-22T10:07:35;101756.66;;;22.76;41.92
70521;BME280;58442;52.716;23.560;2023-05-22T10:09:40;101756.66;;;22.76;41.89
70521;BME280;58442;52.716;23.560;2023-05-22T10:11:43;101757.45;;;22.77;41.85
70521;BME280;58442;52.716;23.560;2023-05-22T10:13:45;101749.54;;;22.75;41.87
70521;BME280;58442;52.716;23.560;2023-05-22T10:15:49;101757.85;;;22.75;41.85
70521;BME280;58442;52.716;23.560;2023-05-22T10:17:51;101752.30;;;22.75;41.69
70521;BME280;58442;52.716;23.560;2023-05-22T10:19:53;101756.66;;;22.76;41.64
70521;BME280;58442;52.716;23.560;2023-05-22T10:21:59;101752.73;;;22.74;41.56
70521;BME280;58442;52.716;23.560;2023-05-22T10:24:02;101751.54;;;22.71;41.37
70521;BME280;58442;52.716;23.560;2023-05-22T10:26:06;101751.16;;;22.69;41.19
70521;BME280;58442;52.716;23.560;2023-05-22T10:28:09;101750.38;;;22.69;41.07
70521;BME280;58442;52.716;23.560;2023-05-22T10:32:40;101746.00;;;22.71;41.01
70521;BME280;58442;52.716;23.560;2023-05-22T10:35:10;101755.51;;;22.70;41.11
70521;BME280;58442;52.716;23.560;2023-05-22T10:41:29;101746.50;;;22.59;41.56
70521;BME280;58442;52.716;23.560;2023-05-22T10:43:31;101738.92;;;22.63;41.54
70521;BME280;58442;52.716;23.560;2023-05-22T10:45:34;101740.08;;;22.69;41.28
70521;BME280;58442;52.716;23.560;2023-05-22T10:47:36;101739.66;;;22.74;41.09
70521;BME280;58442;52.716;23.560;2023-05-22T10:49:42;101744.36;;;22.81;40.94
70521;BME280;58442;52.716;23.560;2023-05-22T10:51:56;101741.56;;;22.88;40.83
70521;BME280;58442;52.716;23.560;2023-05-22T10:54:02;101737.54;;;22.96;40.64
70521;BME280;58442;52.716;23.560;2023-05-22T10:58:34;101734.65;;;23.10;40.23